Tuesday, May 03, 2016
18:12 UTC
  |  Log In   |  Register Free
Airport Search:

Mccarley Fld Airport
(U02)

Mccarley Fld Airport Diagram
No Airport Diagram Available

FAA data valid effective Mar 31 2016 - May 26 2016 (unless otherwise noted).

 
 
 
 
 
 
 
 
 
 
 
 
 
 
Current Aviation Weather for U02

Weather Summary


Current weather conditions are not available for U02 - The nearest NOAA weather station is at PIH, (21 nm SW from U02)

The most recent METAR observation for U02 was updated at: 12:53 UTC
METAR for U02 is not available. Closest METAR is for KIDA 22.0 nm SW
KIDA  (22.0 nm SW)   (most recent observation was updated at 31:75 UTC)
031753Z 00000KT 10SM CLR 18/M02 A3026 RMK AO2 SLP226 HZ ALQDS T01831017 10183 20000 58002

TAF for U02 is not available.
KPIH
031720Z 0318/0418 32007KT P6SM SKC FM041600 21008KT P6SM FEW080 BKN180

KIDA  (22.0 nm SW)   (most recent observation was updatred at 31:72 UTC)
031720Z 0318/0418 VRB05KT P6SM SKC


GlobalAir.com is loading additional information.
 Current Weather at PIH
63.0 F° (17.2 C°)

Northeast winds at 3.5 mph
Pressure:
30.26 in
Humidity:
34%
Wind:
Northeast at 3.5 mph
Dew Point:
34.0 F° (1.1 C°)
Visibility:
10.00 mi
U02 NOAA Radar




Find All Airport Services Find A Hotel Find A Rental Car Find A Golf Course Find A Restaurant $100 Hamburger



Airport Weather Forecast for U02

Translated METAR for KPIH (1753 UTC)
METAR:
KPIH 031753Z 04005KT 10SM CLR 19/03 A3025 RMK AO2 SLP220 T01940028 10194 20011 58002
Conditions at:
KPIH (Pocatello Rgnl, ID) observed 1753 UTC 03 May 2016
Temperature:
19°C (66.2°F)
Dewpoint:
3°C (37.4°F) [RH = 34.5]
Pressure:
30.25 inches Hg (1024.4 mb)
pressure at sea level is 220 in Hg
Winds:
from the NE (040 degrees) at 5.8 mph (5 knots: 2.6 m/s)
Visibility:
10 mile(s)
Ceiling:
at least 12,000 feet AGL
Clouds:
Clear below 12,000 feet AGL
Remarks:
site is automated and HAS a precipitation sensor

Translated TAF for KPIH (Pocatello Rgnl, ID) (1720 UTC)
TAF text:
KPIH 031720Z 0318/0418 32007KT P6SM SKC
Forecast period:
Tuesday May 03 2016 18:00 UTC - Wednesday May 04 2016 18:00 UTC
Forecast type:
FROM: standard forecast or significant change
Winds:
from the NW (320 degrees) at 8.1 mph (7 knots: 3.6 m/s)
Visibility:
6 or more mile(s) (9.7+ km)
Ceiling:
at least 12,000 feet AGL
Clouds:
Clear Skies
Weather:
no significant weather observed at this time
TAF text:
FM041600 21008KT P6SM FEW080 BKN180
Forecast period:
Wednesday May 04 2016 16:00 UTC - Wednesday May 04 2016 18:00 UTC
Forecast type:
FROM: standard forecast or significant change
Winds:
from the SSW (210 degrees) at 9.2 mph (8 knots: 4.1 m/s)
Visibility:
6 or more mile(s) (9.7+ km)
Ceiling:
18,000 feet AGL
Clouds:
Few Clouds at 8,000 feet AGL
Broken Cloud Cover at 18,000 feet AGL
Weather:
no significant weather observed at this time
FBO's on the Field
FBO Company Facility Photos Services Transportation Aviation Fuel Prices: Prices include tax
Catering Weather Repair Courtesy Rental Type 100LL JetA JetA+ MOGAS 8087
 
City of Blackfoot

This FBO has not yet been rated
FS:Independent
Last Updated: Mar-31
Login to update fuel prices
SS:
Contact City of BlackfootMore FBO Information
 
Add another FBO Facility Photos Catering Weather Repair Courtesy Rental Type 100LL JetA JetA+ MOGAS 8087
Services Transportation Aviation Fuel Prices: Prices include tax


model-print
model-print
model-print
model-print